createdAt,value
2018-06-16T00:00:30.976Z,21.68
2018-06-16T00:02:57.272Z,21.67
2018-06-16T00:05:23.565Z,21.65
2018-06-16T00:07:49.859Z,21.64
2018-06-16T00:10:16.154Z,21.62
2018-06-16T00:12:42.455Z,21.61
2018-06-16T00:15:08.773Z,21.62
2018-06-16T00:17:35.094Z,21.62
2018-06-16T00:20:01.384Z,21.60
2018-06-16T00:22:27.671Z,21.58
2018-06-16T00:24:53.965Z,21.57
2018-06-16T00:27:20.249Z,21.56
2018-06-16T00:29:46.569Z,21.55
2018-06-16T00:32:12.858Z,21.54
2018-06-16T00:34:39.144Z,21.52
2018-06-16T00:37:05.443Z,21.51
2018-06-16T00:39:31.744Z,21.50
2018-06-16T00:41:58.028Z,21.48
2018-06-16T00:44:24.319Z,21.44
2018-06-16T00:46:50.656Z,21.41
2018-06-16T00:49:16.950Z,21.40
2018-06-16T00:51:43.241Z,21.40
2018-06-16T00:54:09.537Z,21.39
2018-06-16T00:56:35.836Z,21.38
2018-06-16T00:59:02.170Z,21.38
2018-06-16T01:01:28.465Z,21.36
2018-06-16T01:03:54.790Z,21.34
2018-06-16T01:06:21.121Z,21.33
2018-06-16T01:08:47.416Z,21.31
2018-06-16T01:11:13.703Z,21.27
2018-06-16T01:13:40.081Z,21.24
2018-06-16T01:16:06.339Z,21.24
2018-06-16T01:18:32.633Z,21.23
2018-06-16T01:20:58.931Z,21.23
2018-06-16T01:23:25.223Z,21.21
2018-06-16T01:25:51.526Z,21.20
2018-06-16T01:28:17.822Z,21.18
2018-06-16T01:30:44.111Z,21.15
2018-06-16T01:33:10.412Z,21.14
2018-06-16T01:35:36.708Z,21.14
2018-06-16T01:38:03.003Z,21.11
2018-06-16T01:40:29.306Z,21.11
2018-06-16T01:42:55.594Z,21.13
2018-06-16T01:45:21.884Z,21.10
2018-06-16T01:47:48.177Z,21.08
2018-06-16T01:50:14.479Z,21.06
2018-06-16T01:52:40.810Z,21.05
2018-06-16T01:55:07.100Z,21.05
2018-06-16T01:57:33.398Z,21.05
2018-06-16T01:59:59.694Z,21.06
2018-06-16T02:02:25.990Z,21.03
2018-06-16T02:04:52.285Z,21.05
2018-06-16T02:07:18.583Z,21.04
2018-06-16T02:09:44.871Z,21.02
2018-06-16T02:12:11.162Z,20.98
2018-06-16T02:14:37.461Z,20.98
2018-06-16T02:17:03.757Z,20.99
2018-06-16T02:19:30.060Z,20.98
2018-06-16T02:21:56.377Z,20.96
2018-06-16T02:24:22.671Z,20.93
2018-06-16T02:26:48.963Z,20.93
2018-06-16T02:29:15.298Z,20.91
2018-06-16T02:31:41.592Z,20.91
2018-06-16T02:34:07.915Z,20.90
2018-06-16T02:36:34.205Z,20.89
2018-06-16T02:39:00.498Z,20.87
2018-06-16T02:41:26.795Z,20.87
2018-06-16T02:43:53.088Z,20.87
2018-06-16T02:46:19.408Z,20.88
2018-06-16T02:48:45.704Z,20.87
2018-06-16T02:51:11.995Z,20.84
2018-06-16T02:53:38.294Z,20.84
2018-06-16T02:56:04.596Z,20.84
2018-06-16T02:58:30.936Z,20.81
2018-06-16T03:00:57.235Z,20.81
2018-06-16T03:03:23.570Z,20.80
2018-06-16T03:05:49.834Z,20.79
2018-06-16T03:08:16.127Z,20.79
2018-06-16T03:10:42.420Z,20.79
2018-06-16T03:13:08.720Z,20.78
2018-06-16T03:15:35.020Z,20.78
2018-06-16T03:18:01.325Z,20.78
2018-06-16T03:20:27.615Z,20.77
2018-06-16T03:22:53.913Z,20.78
2018-06-16T03:25:20.206Z,20.77
2018-06-16T03:27:46.505Z,20.76
2018-06-16T03:30:12.814Z,20.76
2018-06-16T03:32:39.103Z,20.72
2018-06-16T03:35:05.407Z,20.72
2018-06-16T03:37:31.704Z,20.73
2018-06-16T03:39:57.998Z,20.73
2018-06-16T03:42:24.290Z,20.73
2018-06-16T03:44:50.615Z,20.74
2018-06-16T03:47:16.905Z,20.75
2018-06-16T03:49:43.197Z,20.76
2018-06-16T03:52:09.492Z,20.77
2018-06-16T03:54:35.835Z,20.76
2018-06-16T03:57:02.125Z,20.75
2018-06-16T03:59:28.417Z,20.76
2018-06-16T04:01:54.773Z,20.78
2018-06-16T04:04:20.997Z,20.77
2018-06-16T04:06:47.332Z,20.75
2018-06-16T04:09:13.650Z,20.77
2018-06-16T04:11:39.912Z,20.80
2018-06-16T04:14:06.205Z,20.82
2018-06-16T04:16:32.542Z,20.86
2018-06-16T04:18:58.868Z,20.90
2018-06-16T04:21:25.168Z,20.93
2018-06-16T04:23:51.459Z,20.96
2018-06-16T04:26:17.750Z,20.96
2018-06-16T04:28:44.044Z,20.97
2018-06-16T04:31:10.365Z,20.96
2018-06-16T04:33:36.663Z,20.96
2018-06-16T04:36:02.957Z,20.96
2018-06-16T04:38:29.302Z,20.95
2018-06-16T04:40:55.590Z,20.96
2018-06-16T04:43:21.883Z,21.00
2018-06-16T04:45:48.245Z,21.01
2018-06-16T04:48:14.473Z,21.04
2018-06-16T04:50:40.793Z,21.08
2018-06-16T04:53:07.086Z,21.10
2018-06-16T04:55:33.377Z,21.09
2018-06-16T04:57:59.674Z,21.10
2018-06-16T05:00:25.971Z,21.12
2018-06-16T05:02:52.271Z,21.18
2018-06-16T05:05:18.551Z,21.23
2018-06-16T05:07:44.888Z,21.28
2018-06-16T05:10:11.187Z,21.33
2018-06-16T05:12:37.515Z,21.36
2018-06-16T05:15:03.813Z,21.37
2018-06-16T05:17:30.111Z,21.36
2018-06-16T05:19:56.412Z,21.36
2018-06-16T05:22:22.717Z,21.32
2018-06-16T05:24:49.008Z,21.32
2018-06-16T05:27:15.302Z,21.31
2018-06-16T05:29:41.596Z,21.30
2018-06-16T05:32:07.893Z,21.31
2018-06-16T05:34:34.183Z,21.30
2018-06-16T05:37:00.471Z,21.30
2018-06-16T05:39:26.773Z,21.29
2018-06-16T05:41:53.075Z,21.27
2018-06-16T05:44:19.369Z,21.25
2018-06-16T05:46:45.667Z,21.22
2018-06-16T05:49:11.965Z,21.23
2018-06-16T05:51:38.252Z,21.25
2018-06-16T05:54:04.568Z,21.24
2018-06-16T05:56:30.837Z,21.25
2018-06-16T05:58:57.135Z,21.27
2018-06-16T06:01:23.477Z,21.38
2018-06-16T06:03:49.764Z,21.50
2018-06-16T06:06:16.051Z,21.60
2018-06-16T06:08:42.353Z,21.66
2018-06-16T06:11:08.650Z,21.68
2018-06-16T06:13:34.982Z,21.71
2018-06-16T06:16:01.278Z,21.70
2018-06-16T06:18:27.600Z,21.63
2018-06-16T06:20:53.893Z,21.49
2018-06-16T06:23:20.194Z,21.44
2018-06-16T06:25:46.489Z,21.39
2018-06-16T06:28:12.794Z,21.40
2018-06-16T06:30:39.091Z,21.41
2018-06-16T06:33:05.488Z,21.59
2018-06-16T06:35:31.844Z,21.75
2018-06-16T06:37:58.225Z,21.74
2018-06-16T06:40:24.512Z,21.56
2018-06-16T06:42:50.803Z,21.57
2018-06-16T06:45:17.097Z,21.64
2018-06-16T06:47:43.392Z,21.68
2018-06-16T06:50:09.684Z,21.73
2018-06-16T06:52:35.977Z,21.77
2018-06-16T06:55:02.278Z,21.84
2018-06-16T06:57:28.569Z,21.92
2018-06-16T06:59:54.880Z,22.00
2018-06-16T07:02:21.171Z,21.91
2018-06-16T07:04:47.459Z,21.98
2018-06-16T07:07:13.800Z,22.04
2018-06-16T07:09:40.100Z,22.11
2018-06-16T07:12:06.435Z,22.16
2018-06-16T07:14:32.732Z,22.18
2018-06-16T07:16:59.020Z,22.27
2018-06-16T07:19:25.355Z,22.62
2018-06-16T07:21:51.713Z,22.80
2018-06-16T07:24:18.044Z,22.85
2018-06-16T07:26:44.390Z,22.96
2018-06-16T07:29:10.687Z,23.07
2018-06-16T07:31:36.988Z,23.21
2018-06-16T07:34:03.499Z,23.34
2018-06-16T07:36:29.812Z,23.45
2018-06-16T07:38:56.116Z,23.66
2018-06-16T07:41:22.626Z,23.89
2018-06-16T07:43:48.887Z,24.01
2018-06-16T07:46:15.177Z,24.01
2018-06-16T07:48:41.468Z,24.02
2018-06-16T07:51:07.768Z,24.07
2018-06-16T07:53:34.064Z,24.13
2018-06-16T07:56:00.363Z,24.20
2018-06-16T07:58:26.651Z,24.34
2018-06-16T08:00:52.950Z,24.50
2018-06-16T08:03:19.281Z,24.60
2018-06-16T08:05:45.614Z,24.69
2018-06-16T08:08:11.916Z,24.79
2018-06-16T08:10:38.211Z,24.89
2018-06-16T08:13:04.560Z,24.96
2018-06-16T08:15:30.849Z,25.02
2018-06-16T08:17:57.213Z,25.07
2018-06-16T08:20:23.443Z,25.15
2018-06-16T08:22:49.774Z,25.27
2018-06-16T08:25:16.087Z,25.38
2018-06-16T08:27:42.376Z,25.51
2018-06-16T08:30:08.698Z,25.56
2018-06-16T08:32:34.984Z,25.56
2018-06-16T08:35:01.279Z,25.55
2018-06-16T08:37:27.572Z,25.48
2018-06-16T08:39:53.860Z,25.63
2018-06-16T08:42:20.157Z,25.76
2018-06-16T08:44:46.444Z,25.91
2018-06-16T08:47:12.733Z,26.05
2018-06-16T08:49:39.030Z,26.16
2018-06-16T08:52:05.326Z,26.21
2018-06-16T08:54:31.647Z,26.06
2018-06-16T08:56:57.941Z,26.02
2018-06-16T08:59:24.261Z,26.01
2018-06-16T09:01:50.576Z,26.20
2018-06-16T09:04:16.864Z,26.37
2018-06-16T09:06:43.157Z,26.52
2018-06-16T09:09:09.452Z,26.60
2018-06-16T09:11:35.748Z,26.65
2018-06-16T09:14:02.036Z,26.70
2018-06-16T09:16:28.333Z,26.80
2018-06-16T09:18:54.630Z,26.66
2018-06-16T09:21:20.925Z,26.51
2018-06-16T09:23:47.222Z,26.60
2018-06-16T09:26:13.516Z,26.44
2018-06-16T09:28:39.818Z,26.35
2018-06-16T09:31:06.104Z,26.52
2018-06-16T09:33:32.397Z,26.58
2018-06-16T09:35:58.685Z,26.59
2018-06-16T09:38:24.997Z,26.54
2018-06-16T09:40:51.268Z,26.41
2018-06-16T09:43:17.596Z,26.35
2018-06-16T09:45:43.897Z,26.54
2018-06-16T09:48:10.287Z,26.70
2018-06-16T09:50:36.515Z,26.88
2018-06-16T09:53:02.811Z,27.03
2018-06-16T09:55:29.142Z,27.16
2018-06-16T09:57:55.427Z,27.25
2018-06-16T10:00:21.724Z,27.32
2018-06-16T10:02:48.016Z,27.41
2018-06-16T10:05:14.347Z,27.34
2018-06-16T10:07:40.632Z,27.20
2018-06-16T10:10:06.918Z,27.06
2018-06-16T10:12:33.246Z,26.93
2018-06-16T10:14:59.533Z,26.91
2018-06-16T10:17:25.833Z,27.05
2018-06-16T10:19:52.142Z,27.13
2018-06-16T10:22:18.480Z,27.07
2018-06-16T10:24:44.769Z,27.22
2018-06-16T10:27:11.062Z,27.38
2018-06-16T10:29:37.387Z,27.48
2018-06-16T10:32:03.690Z,27.34
2018-06-16T10:34:29.985Z,27.26
2018-06-16T10:36:56.286Z,27.31
2018-06-16T10:39:22.623Z,27.39
2018-06-16T10:41:48.949Z,27.48
2018-06-16T10:44:15.271Z,27.59
2018-06-16T10:46:41.565Z,27.70
2018-06-16T10:49:07.861Z,27.82
2018-06-16T10:51:34.147Z,27.91
2018-06-16T10:54:00.433Z,27.99
2018-06-16T10:56:26.748Z,28.05
2018-06-16T10:58:53.039Z,28.08
2018-06-16T11:01:19.325Z,28.08
2018-06-16T11:03:45.625Z,28.00
2018-06-16T11:06:11.961Z,27.79
2018-06-16T11:08:38.248Z,27.55
2018-06-16T11:11:04.537Z,27.33
2018-06-16T11:13:30.832Z,27.15
2018-06-16T11:15:57.115Z,26.99
2018-06-16T11:18:23.412Z,26.85
2018-06-16T11:20:49.727Z,26.71
2018-06-16T11:23:16.025Z,26.59
2018-06-16T11:25:42.328Z,26.48
2018-06-16T11:28:08.626Z,26.39
2018-06-16T11:30:34.963Z,26.31
2018-06-16T11:33:01.218Z,26.24
2018-06-16T11:35:27.507Z,26.18
2018-06-16T11:37:53.800Z,26.11
2018-06-16T11:40:20.140Z,26.04
2018-06-16T11:42:46.437Z,25.99
2018-06-16T11:45:12.742Z,25.95
2018-06-16T11:47:39.030Z,25.90
2018-06-16T11:50:05.337Z,25.85
2018-06-16T11:52:31.657Z,25.80
2018-06-16T11:54:57.946Z,25.77
2018-06-16T11:57:24.245Z,25.71
2018-06-16T11:59:50.548Z,25.67
2018-06-16T12:02:16.840Z,25.59
2018-06-16T12:04:43.135Z,25.46
2018-06-16T12:07:09.472Z,25.33
2018-06-16T12:09:35.770Z,25.18
2018-06-16T12:12:02.061Z,25.07
2018-06-16T12:14:28.368Z,25.00
2018-06-16T12:16:54.650Z,24.94
2018-06-16T12:19:20.940Z,24.91
2018-06-16T12:21:47.271Z,24.86
2018-06-16T12:24:13.566Z,24.75
2018-06-16T12:26:39.855Z,24.68
2018-06-16T12:29:06.149Z,24.69
2018-06-16T12:31:32.446Z,24.68
2018-06-16T12:33:58.731Z,24.66
2018-06-16T12:36:25.029Z,24.59
2018-06-16T12:38:51.330Z,24.50
2018-06-16T12:41:17.642Z,24.46
2018-06-16T12:43:43.932Z,24.44
2018-06-16T12:46:10.220Z,24.40
2018-06-16T12:48:36.519Z,24.25
2018-06-16T12:51:02.816Z,24.11
2018-06-16T12:53:29.116Z,24.06
2018-06-16T12:55:55.414Z,23.94
2018-06-16T12:58:21.769Z,23.83
2018-06-16T13:00:48.072Z,23.60
2018-06-16T13:03:14.366Z,23.45
2018-06-16T13:05:40.694Z,23.21
2018-06-16T13:08:06.994Z,23.30
2018-06-16T13:10:33.292Z,23.10
2018-06-16T13:12:59.591Z,23.00
2018-06-16T13:15:25.889Z,23.13
2018-06-16T13:17:52.188Z,22.94
2018-06-16T13:20:18.489Z,22.42
2018-06-16T13:22:44.828Z,22.12
2018-06-16T13:25:11.126Z,22.13
2018-06-16T13:27:37.439Z,21.99
2018-06-16T13:30:03.730Z,21.85
2018-06-16T13:32:30.033Z,21.84
2018-06-16T13:34:56.334Z,21.74
2018-06-16T13:37:22.629Z,21.73
2018-06-16T13:39:48.931Z,21.60
2018-06-16T13:42:15.228Z,21.72
2018-06-16T13:44:41.556Z,21.88
2018-06-16T13:47:07.857Z,21.88
2018-06-16T13:49:34.148Z,21.84
2018-06-16T13:52:00.445Z,21.99
2018-06-16T13:54:26.773Z,22.04
2018-06-16T13:56:53.077Z,22.09
2018-06-16T13:59:19.371Z,22.10
2018-06-16T14:01:45.713Z,22.05
2018-06-16T14:04:12.018Z,22.03
2018-06-16T14:06:38.302Z,22.01
2018-06-16T14:09:04.600Z,22.02
2018-06-16T14:11:30.901Z,21.98
2018-06-16T14:13:57.198Z,21.98
2018-06-16T14:16:23.492Z,21.94
2018-06-16T14:18:49.794Z,21.93
2018-06-16T14:21:16.090Z,21.93
2018-06-16T14:23:42.400Z,21.93
2018-06-16T14:26:08.697Z,21.93
2018-06-16T14:28:35.003Z,21.92
2018-06-16T14:31:01.322Z,21.92
2018-06-16T14:33:27.639Z,21.92
2018-06-16T14:35:53.944Z,21.94
2018-06-16T14:38:20.266Z,21.93
2018-06-16T14:40:46.553Z,21.91
2018-06-16T14:43:12.847Z,21.90
2018-06-16T14:45:39.152Z,21.89
2018-06-16T14:48:05.450Z,21.91
2018-06-16T14:50:31.749Z,21.88
2018-06-16T14:52:58.070Z,21.86
2018-06-16T14:55:24.365Z,21.88
2018-06-16T14:57:50.656Z,21.89
2018-06-16T15:00:16.978Z,21.88
2018-06-16T15:02:43.294Z,21.88
2018-06-16T15:05:09.656Z,21.88
2018-06-16T15:07:35.925Z,21.89
2018-06-16T15:10:02.227Z,21.86
2018-06-16T15:12:28.522Z,21.85
2018-06-16T15:14:54.826Z,21.90
2018-06-16T15:17:21.117Z,21.94
2018-06-16T15:19:47.438Z,21.97
2018-06-16T15:22:13.732Z,22.02
2018-06-16T15:24:40.028Z,22.03
2018-06-16T15:27:06.365Z,22.06
2018-06-16T15:29:32.657Z,22.07
2018-06-16T15:31:58.952Z,22.04
2018-06-16T15:34:25.246Z,22.06
2018-06-16T15:36:51.543Z,22.05
2018-06-16T15:39:18.213Z,22.00
2018-06-16T15:41:44.505Z,22.00
2018-06-16T15:44:10.837Z,22.02
2018-06-16T15:46:37.234Z,22.05
2018-06-16T15:49:03.466Z,22.05
2018-06-16T15:51:29.762Z,22.00
2018-06-16T15:53:56.060Z,22.01
2018-06-16T15:56:22.349Z,22.02
2018-06-16T15:58:48.706Z,21.95
2018-06-16T16:01:15.001Z,21.99
2018-06-16T16:03:41.294Z,22.03
2018-06-16T16:06:07.594Z,22.03
2018-06-16T16:08:33.885Z,22.04
2018-06-16T16:11:00.211Z,22.05
2018-06-16T16:13:26.508Z,22.04
2018-06-16T16:15:52.802Z,22.03
2018-06-16T16:18:19.107Z,22.01
2018-06-16T16:20:45.400Z,21.98
2018-06-16T16:23:11.727Z,21.94
2018-06-16T16:25:38.017Z,21.91
2018-06-16T16:28:04.322Z,21.89
2018-06-16T16:30:30.651Z,21.85
2018-06-16T16:32:58.639Z,21.82
2018-06-16T16:35:23.282Z,21.81
2018-06-16T16:37:49.587Z,21.79
2018-06-16T16:40:15.889Z,21.79
2018-06-16T16:42:42.200Z,21.76
2018-06-16T16:45:08.509Z,21.75
2018-06-16T16:47:34.793Z,21.73
2018-06-16T16:50:01.122Z,21.73
2018-06-16T16:52:27.414Z,21.73
2018-06-16T16:54:53.711Z,21.73
2018-06-16T16:57:20.006Z,21.73
2018-06-16T16:59:46.302Z,21.73
2018-06-16T17:02:12.620Z,21.73
2018-06-16T17:04:38.918Z,21.71
2018-06-16T17:07:05.214Z,21.70
2018-06-16T17:09:31.744Z,21.69
2018-06-16T17:11:58.025Z,21.63
2018-06-16T17:14:24.358Z,21.55
2018-06-16T17:16:50.653Z,21.47
2018-06-16T17:19:16.956Z,21.44
2018-06-16T17:21:43.489Z,21.40
2018-06-16T17:24:09.781Z,21.39
2018-06-16T17:26:36.100Z,21.33
2018-06-16T17:29:02.404Z,21.28
2018-06-16T17:31:28.707Z,21.26
2018-06-16T17:33:54.996Z,21.26
2018-06-16T17:36:21.292Z,21.25
2018-06-16T17:38:47.664Z,21.24
2018-06-16T17:41:13.967Z,21.26
2018-06-16T17:43:40.263Z,21.23
2018-06-16T17:46:06.603Z,21.20
2018-06-16T17:48:32.961Z,21.17
2018-06-16T17:50:59.252Z,21.15
2018-06-16T17:53:25.564Z,21.12
2018-06-16T17:55:51.858Z,21.11
2018-06-16T17:58:18.259Z,21.10
2018-06-16T18:00:44.561Z,21.10
2018-06-16T18:03:10.850Z,21.11
2018-06-16T18:05:37.185Z,21.11
2018-06-16T18:08:03.478Z,21.11
2018-06-16T18:10:29.769Z,21.08
2018-06-16T18:12:56.084Z,21.05
2018-06-16T18:15:22.389Z,21.03
2018-06-16T18:17:48.831Z,21.04
2018-06-16T18:20:15.051Z,21.05
2018-06-16T18:22:41.354Z,21.03
2018-06-16T18:25:07.657Z,21.02
2018-06-16T18:27:33.987Z,21.00
2018-06-16T18:30:00.320Z,20.99
2018-06-16T18:32:26.612Z,21.00
2018-06-16T18:34:52.910Z,20.99
2018-06-16T18:37:19.217Z,20.98
2018-06-16T18:39:45.519Z,20.97
2018-06-16T18:42:11.844Z,20.94
2018-06-16T18:44:38.137Z,20.89
2018-06-16T18:47:04.428Z,20.83
2018-06-16T18:49:30.762Z,20.83
2018-06-16T18:51:57.055Z,20.83
2018-06-16T18:54:23.350Z,20.82
2018-06-16T18:56:49.654Z,20.80
2018-06-16T18:59:15.941Z,20.80
2018-06-16T19:01:42.268Z,20.80
2018-06-16T19:04:08.618Z,20.79
2018-06-16T19:06:34.872Z,20.78
2018-06-16T19:09:01.194Z,20.77
2018-06-16T19:11:27.492Z,20.74
2018-06-16T19:13:54.646Z,20.74
2018-06-16T19:16:20.985Z,20.72
2018-06-16T19:18:47.279Z,20.68
2018-06-16T19:21:13.568Z,20.67
2018-06-16T19:23:40.941Z,20.67
2018-06-16T19:26:07.236Z,20.70
2018-06-16T19:28:33.582Z,20.72
2018-06-16T19:30:59.863Z,20.69
2018-06-16T19:33:26.157Z,20.69
2018-06-16T19:35:52.444Z,20.68
2018-06-16T19:38:18.749Z,20.67
2018-06-16T19:40:45.038Z,20.66
2018-06-16T19:43:11.384Z,20.66
2018-06-16T19:45:37.666Z,20.65
2018-06-16T19:48:03.963Z,20.62
2018-06-16T19:50:30.315Z,20.58
2018-06-16T19:52:56.620Z,20.56
2018-06-16T19:55:22.910Z,20.57
2018-06-16T19:57:49.212Z,20.58
2018-06-16T20:00:15.510Z,20.56
2018-06-16T20:02:41.843Z,20.58
2018-06-16T20:05:08.150Z,20.57
2018-06-16T20:07:34.447Z,20.56
2018-06-16T20:10:00.741Z,20.54
2018-06-16T20:12:27.043Z,20.52
2018-06-16T20:14:53.369Z,20.52
2018-06-16T20:17:19.700Z,20.52
2018-06-16T20:19:45.961Z,20.52
2018-06-16T20:22:12.256Z,20.51
2018-06-16T20:24:38.544Z,20.48
2018-06-16T20:27:04.875Z,20.45
2018-06-16T20:29:31.177Z,20.44
2018-06-16T20:31:57.468Z,20.44
2018-06-16T20:34:23.762Z,20.44
2018-06-16T20:36:50.053Z,20.44
2018-06-16T20:39:16.384Z,20.41
2018-06-16T20:41:42.675Z,20.39
2018-06-16T20:44:08.972Z,20.36
2018-06-16T20:46:35.270Z,20.33
2018-06-16T20:49:01.567Z,20.29
2018-06-16T20:51:27.896Z,20.27
2018-06-16T20:53:54.195Z,20.26
2018-06-16T20:56:20.496Z,20.27
2018-06-16T20:58:46.825Z,20.27
2018-06-16T21:01:13.122Z,20.27
2018-06-16T21:03:39.422Z,20.27
2018-06-16T21:06:05.742Z,20.24
2018-06-16T21:08:32.040Z,20.18
2018-06-16T21:10:58.335Z,20.16
2018-06-16T21:13:24.685Z,20.15
2018-06-16T21:15:50.982Z,20.15
2018-06-16T21:18:17.282Z,20.14
2018-06-16T21:20:43.606Z,20.11
2018-06-16T21:23:09.896Z,20.08
2018-06-16T21:25:36.204Z,20.07
2018-06-16T21:28:02.539Z,20.07
2018-06-16T21:30:28.841Z,20.07
2018-06-16T21:32:55.141Z,20.07
2018-06-16T21:35:21.480Z,20.05
2018-06-16T21:37:47.785Z,20.04
2018-06-16T21:40:14.073Z,20.03
2018-06-16T21:42:40.402Z,20.02
2018-06-16T21:45:06.702Z,20.02
2018-06-16T21:47:32.998Z,20.01
2018-06-16T21:49:59.295Z,19.98
2018-06-16T21:52:25.605Z,20.00
2018-06-16T21:54:51.934Z,19.99
2018-06-16T21:57:18.234Z,19.96
2018-06-16T21:59:44.526Z,19.94
2018-06-16T22:02:10.858Z,19.94
2018-06-16T22:04:37.156Z,19.94
2018-06-16T22:07:03.449Z,19.93
2018-06-16T22:09:30.098Z,19.91
2018-06-16T22:11:56.388Z,19.91
2018-06-16T22:14:22.735Z,19.89
2018-06-16T22:16:49.020Z,19.87
2018-06-16T22:19:15.313Z,19.86
2018-06-16T22:21:41.640Z,19.84
2018-06-16T22:24:07.949Z,19.83
2018-06-16T22:26:34.246Z,19.81
2018-06-16T22:29:00.552Z,19.80
2018-06-16T22:31:26.842Z,19.81
2018-06-16T22:33:53.178Z,19.82
2018-06-16T22:36:19.509Z,19.84
2018-06-16T22:38:45.770Z,19.85
2018-06-16T22:41:12.072Z,19.85
2018-06-16T22:43:38.371Z,19.83
2018-06-16T22:46:04.692Z,19.84
2018-06-16T22:48:30.993Z,19.83
2018-06-16T22:50:57.289Z,19.83
2018-06-16T22:53:23.612Z,19.80
2018-06-16T22:55:49.913Z,19.77
2018-06-16T22:58:16.241Z,19.78
2018-06-16T23:00:42.534Z,19.77
2018-06-16T23:03:08.832Z,19.74
2018-06-16T23:05:35.140Z,19.72
2018-06-16T23:08:01.439Z,19.71
2018-06-16T23:10:27.765Z,19.68
2018-06-16T23:12:54.061Z,19.63
2018-06-16T23:15:20.369Z,19.61
2018-06-16T23:17:46.662Z,19.63
2018-06-16T23:20:12.959Z,19.63
2018-06-16T23:22:39.286Z,19.64
2018-06-16T23:25:05.576Z,19.60
2018-06-16T23:27:31.866Z,19.56
2018-06-16T23:29:58.162Z,19.55
2018-06-16T23:32:24.462Z,19.55
2018-06-16T23:34:50.789Z,19.58
2018-06-16T23:37:17.085Z,19.58
2018-06-16T23:39:43.373Z,19.59
2018-06-16T23:42:09.670Z,19.58
2018-06-16T23:44:35.981Z,19.57
2018-06-16T23:47:02.320Z,19.57
2018-06-16T23:49:28.608Z,19.57
2018-06-16T23:51:54.900Z,19.57
2018-06-16T23:54:21.196Z,19.55
2018-06-16T23:56:47.486Z,19.53
2018-06-16T23:59:13.819Z,19.53
